createdAt,value
2019-04-23T00:00:42.571Z,0.00
2019-04-23T00:02:08.294Z,0.00
2019-04-23T00:02:33.216Z,0.00
2019-04-23T00:03:40.226Z,0.00
2019-04-23T00:04:35.650Z,0.00
2019-04-23T00:06:00.114Z,0.00
2019-04-23T00:06:47.609Z,0.00
2019-04-23T00:08:05.881Z,0.00
2019-04-23T00:09:05.426Z,0.00
2019-04-23T00:09:39.868Z,0.00
2019-04-23T00:10:43.029Z,0.00
2019-04-23T00:11:49.608Z,0.00
2019-04-23T00:14:08.456Z,0.00
2019-04-23T00:14:52.567Z,0.00
2019-04-23T00:15:45.242Z,0.00
2019-04-23T00:16:38.403Z,0.00
2019-04-23T00:17:42.435Z,0.00
2019-04-23T00:18:42.254Z,0.00
2019-04-23T00:20:06.183Z,0.00
2019-04-23T00:20:43.153Z,0.00
2019-04-23T00:21:42.368Z,0.00
2019-04-23T00:23:46.365Z,0.00
2019-04-23T00:25:06.165Z,0.00
2019-04-23T00:26:03.444Z,0.00
2019-04-23T00:26:41.860Z,0.00
2019-04-23T00:27:42.806Z,0.00
2019-04-23T00:28:40.862Z,0.00
2019-04-23T00:29:48.414Z,0.00
2019-04-23T00:30:55.370Z,0.00
2019-04-23T00:31:59.589Z,0.00
2019-04-23T00:32:44.643Z,0.00
2019-04-23T00:33:57.773Z,0.00
2019-04-23T00:36:10.370Z,0.00
2019-04-23T00:38:05.011Z,0.00
2019-04-23T00:39:10.330Z,0.00
2019-04-23T00:39:46.740Z,0.00
2019-04-23T00:41:42.880Z,0.00
2019-04-23T00:42:43.373Z,0.00
2019-04-23T00:44:04.220Z,0.00
2019-04-23T00:44:46.071Z,0.00
2019-04-23T00:45:47.336Z,0.00
2019-04-23T00:46:45.328Z,0.00
2019-04-23T00:48:52.190Z,0.00
2019-04-23T00:50:06.403Z,0.00
2019-04-23T00:50:52.898Z,0.00
2019-04-23T00:51:43.106Z,0.00
2019-04-23T00:52:39.996Z,0.00
2019-04-23T00:53:37.000Z,0.00
2019-04-23T00:56:21.952Z,0.00
2019-04-23T00:57:43.948Z,0.00
2019-04-23T00:58:41.709Z,0.00
2019-04-23T00:59:44.766Z,0.00
2019-04-23T01:02:00.714Z,0.00
2019-04-23T01:02:48.831Z,0.00
2019-04-23T01:03:47.006Z,0.00
2019-04-23T01:04:55.851Z,0.00
2019-04-23T01:05:41.018Z,0.00
2019-04-23T01:06:39.072Z,0.00
2019-04-23T01:08:06.791Z,0.00
2019-04-23T01:08:55.099Z,0.00
2019-04-23T01:09:50.402Z,0.00
2019-04-23T01:10:47.553Z,0.00
2019-04-23T01:11:38.838Z,0.00
2019-04-23T01:12:48.297Z,0.00
2019-04-23T01:14:02.328Z,0.00
2019-04-23T01:14:38.610Z,0.00
2019-04-23T01:16:40.401Z,0.00
2019-04-23T01:20:01.705Z,0.00
2019-04-23T01:20:44.458Z,0.00
2019-04-23T01:21:22.271Z,0.00
2019-04-23T01:22:21.107Z,0.00
2019-04-23T01:23:31.215Z,0.00
2019-04-23T01:24:25.405Z,0.00
2019-04-23T01:25:52.309Z,0.00
2019-04-23T01:26:42.201Z,0.00
2019-04-23T01:28:50.308Z,0.00
2019-04-23T01:29:52.139Z,0.00
2019-04-23T01:30:53.002Z,0.00
2019-04-23T01:32:14.176Z,0.00
2019-04-23T01:32:44.109Z,0.00
2019-04-23T01:33:53.209Z,0.00
2019-04-23T01:34:53.444Z,0.00
2019-04-23T01:36:01.411Z,0.00
2019-04-23T01:36:42.951Z,0.00
2019-04-23T01:38:09.394Z,0.00
2019-04-23T01:38:55.747Z,0.00
2019-04-23T01:39:50.422Z,0.00
2019-04-23T01:41:02.090Z,0.00
2019-04-23T01:41:49.249Z,0.00
2019-04-23T01:42:44.889Z,0.00
2019-04-23T01:44:07.449Z,0.00
2019-04-23T01:44:50.334Z,0.00
2019-04-23T01:45:35.583Z,0.00
2019-04-23T01:46:49.171Z,0.00
2019-04-23T01:47:50.025Z,0.00
2019-04-23T01:50:13.958Z,0.00
2019-04-23T01:50:48.370Z,0.00
2019-04-23T01:51:55.207Z,0.00
2019-04-23T01:53:54.974Z,0.00
2019-04-23T01:54:45.458Z,0.00
2019-04-23T01:56:06.135Z,0.00
2019-04-23T01:56:40.001Z,0.00
2019-04-23T01:57:56.411Z,0.00
2019-04-23T01:58:46.995Z,0.00
2019-04-23T01:59:49.062Z,0.00
2019-04-23T02:00:47.662Z,0.00
2019-04-23T02:02:14.317Z,0.00
2019-04-23T02:02:52.475Z,0.00
2019-04-23T02:04:59.179Z,0.00
2019-04-23T02:05:48.073Z,0.00
2019-04-23T02:06:44.924Z,0.00
2019-04-23T02:08:08.275Z,0.00
2019-04-23T02:08:48.677Z,0.00
2019-04-23T02:09:52.802Z,0.00
2019-04-23T02:10:51.359Z,0.00
2019-04-23T02:12:08.938Z,0.00
2019-04-23T02:13:03.843Z,0.00
2019-04-23T02:14:08.311Z,0.00
2019-04-23T02:14:51.590Z,0.00
2019-04-23T02:15:49.232Z,0.00
2019-04-23T02:16:49.950Z,0.00
2019-04-23T02:17:53.713Z,0.00
2019-04-23T02:18:52.538Z,0.00
2019-04-23T02:20:16.131Z,0.00
2019-04-23T02:20:47.944Z,0.00
2019-04-23T02:21:54.631Z,0.00
2019-04-23T02:22:58.687Z,0.00
2019-04-23T02:23:49.073Z,0.00
2019-04-23T02:24:47.606Z,0.00
2019-04-23T02:26:03.015Z,0.00
2019-04-23T02:26:52.204Z,0.00
2019-04-23T02:27:52.277Z,0.00
2019-04-23T02:30:05.946Z,0.00
2019-04-23T02:32:19.091Z,0.00
2019-04-23T02:33:12.395Z,0.00
2019-04-23T02:34:06.678Z,0.00
2019-04-23T02:35:02.307Z,0.00
2019-04-23T02:36:57.316Z,0.00
2019-04-23T02:38:19.091Z,0.00
2019-04-23T02:39:57.375Z,0.00
2019-04-23T02:41:13.608Z,0.00
2019-04-23T02:43:06.732Z,0.00
2019-04-23T02:44:21.782Z,0.00
2019-04-23T02:44:56.330Z,0.00
2019-04-23T02:46:58.846Z,0.00
2019-04-23T02:48:03.362Z,0.00
2019-04-23T02:49:00.101Z,0.00
2019-04-23T02:50:33.191Z,0.00
2019-04-23T02:53:02.555Z,0.00
2019-04-23T02:56:21.861Z,0.00
2019-04-23T02:56:51.151Z,0.00
2019-04-23T02:58:01.934Z,0.00
2019-04-23T03:03:59.753Z,0.00
2019-04-23T03:05:59.233Z,0.00
2019-04-23T03:08:20.266Z,0.00
2019-04-23T03:11:57.099Z,0.00
2019-04-23T03:13:04.543Z,0.00
2019-04-23T03:14:16.215Z,0.00
2019-04-23T03:14:59.254Z,0.00
2019-04-23T03:16:12.884Z,0.00
2019-04-23T03:17:06.001Z,0.00
2019-04-23T03:18:04.098Z,0.00
2019-04-23T03:20:21.856Z,0.00
2019-04-23T03:21:11.660Z,0.00
2019-04-23T03:21:59.779Z,0.00
2019-04-23T03:23:03.063Z,0.00
2019-04-23T03:24:00.021Z,0.00
2019-04-23T03:26:26.283Z,0.00
2019-04-23T03:27:10.242Z,0.00
2019-04-23T03:27:46.446Z,0.00
2019-04-23T03:35:09.484Z,0.00
2019-04-23T03:38:35.163Z,0.00
2019-04-23T03:38:51.934Z,0.00
2019-04-23T03:40:04.392Z,0.00
2019-04-23T03:41:54.450Z,0.00
2019-04-23T03:42:57.745Z,0.00
2019-04-23T03:44:25.479Z,0.00
2019-04-23T03:45:16.775Z,0.00
2019-04-23T03:46:12.445Z,0.00
2019-04-23T03:46:49.763Z,0.00
2019-04-23T03:47:56.205Z,0.00
2019-04-23T03:48:54.869Z,0.00
2019-04-23T03:52:01.241Z,0.00
2019-04-23T03:53:14.104Z,0.00
2019-04-23T03:54:06.107Z,0.00
2019-04-23T03:54:49.083Z,0.00
2019-04-23T03:56:22.883Z,0.00
2019-04-23T03:58:07.013Z,0.00
2019-04-23T04:01:11.882Z,0.00
2019-04-23T04:02:31.028Z,0.00
2019-04-23T04:03:10.777Z,0.00
2019-04-23T04:05:12.584Z,0.00
2019-04-23T04:06:03.308Z,0.00
2019-04-23T04:06:59.508Z,0.00
2019-04-23T04:08:18.028Z,0.00
2019-04-23T04:09:06.290Z,0.00
2019-04-23T04:09:52.115Z,0.00
2019-04-23T04:11:04.291Z,5.63
2019-04-23T04:11:54.938Z,5.63
2019-04-23T04:15:21.272Z,5.63
2019-04-23T04:17:03.652Z,5.63
2019-04-23T04:18:11.784Z,5.63
2019-04-23T04:19:06.499Z,5.63
2019-04-23T04:20:24.429Z,11.25
2019-04-23T04:21:03.295Z,11.25
2019-04-23T04:21:58.484Z,11.25
2019-04-23T04:23:09.318Z,11.25
2019-04-23T04:24:05.380Z,11.25
2019-04-23T04:26:23.131Z,16.88
2019-04-23T04:28:10.645Z,16.88
2019-04-23T04:29:11.787Z,16.88
2019-04-23T04:32:12.475Z,22.50
2019-04-23T04:33:05.486Z,22.50
2019-04-23T04:37:27.323Z,33.75
2019-04-23T04:38:36.450Z,33.75
2019-04-23T04:38:54.370Z,33.75
2019-04-23T04:40:07.715Z,39.38
2019-04-23T04:41:59.073Z,39.38
2019-04-23T04:43:11.290Z,45.00
2019-04-23T04:45:00.377Z,45.00
2019-04-23T04:46:59.806Z,50.63
2019-04-23T04:48:55.754Z,56.25
2019-04-23T04:50:35.156Z,56.25
2019-04-23T04:51:04.215Z,61.88
2019-04-23T04:52:13.504Z,61.88
2019-04-23T04:54:55.765Z,67.50
2019-04-23T04:56:27.559Z,73.13
2019-04-23T04:59:05.830Z,78.75
2019-04-23T05:02:30.386Z,84.38
2019-04-23T05:03:47.149Z,90.00
2019-04-23T05:05:05.164Z,90.00
2019-04-23T05:08:19.732Z,95.63
2019-04-23T05:11:05.354Z,95.63
2019-04-23T05:13:13.845Z,101.25
2019-04-23T05:14:20.923Z,101.25
2019-04-23T05:14:59.638Z,101.25
2019-04-23T05:15:50.063Z,106.88
2019-04-23T05:16:57.424Z,106.88
2019-04-23T05:18:03.602Z,112.50
2019-04-23T05:19:02.282Z,112.50
2019-04-23T05:21:00.223Z,118.13
2019-04-23T05:21:58.909Z,118.13
2019-04-23T05:23:09.175Z,123.75
2019-04-23T05:23:54.426Z,123.75
2019-04-23T05:24:52.562Z,123.75
2019-04-23T05:26:16.883Z,129.38
2019-04-23T05:26:46.503Z,129.38
2019-04-23T05:28:02.803Z,135.00
2019-04-23T05:29:56.036Z,140.63
2019-04-23T05:31:01.249Z,140.63
2019-04-23T05:32:14.904Z,146.25
2019-04-23T05:32:58.016Z,146.25
2019-04-23T05:33:57.207Z,146.25
2019-04-23T05:34:57.663Z,151.88
2019-04-23T05:37:04.989Z,157.50
2019-04-23T05:40:15.957Z,168.75
2019-04-23T05:40:53.755Z,168.75
2019-04-23T05:42:04.448Z,174.38
2019-04-23T05:42:52.174Z,174.38
2019-04-23T05:44:15.710Z,180.00
2019-04-23T05:45:56.366Z,185.63
2019-04-23T05:47:23.196Z,191.25
2019-04-23T05:47:58.666Z,191.25
2019-04-23T05:48:52.614Z,196.88
2019-04-23T05:50:17.431Z,196.88
2019-04-23T05:50:58.823Z,202.50
2019-04-23T05:51:57.740Z,202.50
2019-04-23T05:52:52.813Z,213.75
2019-04-23T05:53:50.970Z,219.38
2019-04-23T05:54:57.516Z,213.75
2019-04-23T05:56:15.296Z,225.00
2019-04-23T05:56:52.000Z,225.00
2019-04-23T05:57:52.449Z,230.63
2019-04-23T05:58:53.037Z,236.25
2019-04-23T06:00:59.909Z,241.88
2019-04-23T06:02:13.260Z,247.50
2019-04-23T06:02:59.303Z,253.13
2019-04-23T06:03:58.156Z,258.75
2019-04-23T06:04:49.545Z,264.38
2019-04-23T06:05:57.893Z,270.00
2019-04-23T06:08:20.199Z,275.63
2019-04-23T06:08:52.838Z,281.25
2019-04-23T06:09:53.189Z,286.88
2019-04-23T06:10:57.257Z,286.88
2019-04-23T06:11:57.100Z,292.50
2019-04-23T06:12:50.890Z,292.50
2019-04-23T06:14:53.704Z,298.13
2019-04-23T06:15:53.994Z,303.75
2019-04-23T06:17:56.353Z,315.00
2019-04-23T06:18:59.280Z,315.00
2019-04-23T06:20:21.284Z,320.63
2019-04-23T06:21:10.071Z,326.25
2019-04-23T06:23:50.214Z,343.13
2019-04-23T06:24:48.818Z,348.75
2019-04-23T06:26:29.956Z,354.38
2019-04-23T06:26:51.648Z,360.00
2019-04-23T06:27:57.532Z,365.63
2019-04-23T06:29:50.150Z,376.88
2019-04-23T06:30:58.931Z,382.50
2019-04-23T06:32:14.949Z,382.50
2019-04-23T06:32:51.383Z,388.13
2019-04-23T06:33:54.156Z,382.50
2019-04-23T06:34:53.101Z,382.50
2019-04-23T06:35:47.109Z,388.13
2019-04-23T06:36:51.429Z,393.75
2019-04-23T06:38:32.990Z,393.75
2019-04-23T06:38:57.335Z,393.75
2019-04-23T06:39:55.457Z,405.00
2019-04-23T06:40:59.531Z,410.63
2019-04-23T06:41:54.752Z,410.63
2019-04-23T06:42:54.726Z,410.63
2019-04-23T06:44:19.028Z,416.25
2019-04-23T06:45:49.375Z,421.88
2019-04-23T06:46:56.863Z,421.88
2019-04-23T06:47:56.460Z,427.50
2019-04-23T06:48:54.844Z,427.50
2019-04-23T06:50:29.606Z,433.13
2019-04-23T06:51:02.322Z,427.50
2019-04-23T06:52:01.659Z,433.13
2019-04-23T06:52:50.115Z,433.13
2019-04-23T06:53:51.331Z,438.75
2019-04-23T06:54:56.519Z,438.75
2019-04-23T06:56:21.214Z,438.75
2019-04-23T06:57:02.320Z,444.38
2019-04-23T06:57:57.100Z,444.38
2019-04-23T06:58:48.914Z,444.38
2019-04-23T06:59:48.448Z,438.75
2019-04-23T07:00:59.311Z,444.38
2019-04-23T07:02:54.144Z,444.38
2019-04-23T07:04:56.775Z,444.38
2019-04-23T07:06:04.987Z,444.38
2019-04-23T07:07:16.379Z,450.00
2019-04-23T07:08:23.440Z,455.63
2019-04-23T07:09:51.703Z,461.25
2019-04-23T07:10:57.560Z,461.25
2019-04-23T07:11:47.948Z,466.88
2019-04-23T07:13:14.309Z,461.25
2019-04-23T07:14:02.377Z,455.63
2019-04-23T07:15:58.393Z,461.25
2019-04-23T07:16:52.731Z,461.25
2019-04-23T07:17:51.871Z,455.63
2019-04-23T07:18:54.592Z,455.63
2019-04-23T07:20:13.200Z,455.63
2019-04-23T07:20:51.442Z,455.63
2019-04-23T07:22:04.742Z,455.63
2019-04-23T07:22:58.404Z,455.63
2019-04-23T07:24:00.264Z,466.88
2019-04-23T07:24:54.606Z,472.50
2019-04-23T07:26:26.147Z,472.50
2019-04-23T07:26:45.057Z,483.75
2019-04-23T07:27:51.316Z,483.75
2019-04-23T07:28:56.463Z,483.75
2019-04-23T07:31:00.521Z,489.38
2019-04-23T07:32:10.878Z,500.63
2019-04-23T07:33:57.563Z,511.88
2019-04-23T07:35:04.591Z,511.88
2019-04-23T07:35:52.031Z,523.13
2019-04-23T07:36:55.448Z,528.75
2019-04-23T07:38:28.723Z,534.38
2019-04-23T07:40:11.332Z,540.00
2019-04-23T07:40:55.815Z,534.38
2019-04-23T07:42:03.091Z,534.38
2019-04-23T07:42:59.960Z,540.00
2019-04-23T07:44:23.095Z,540.00
2019-04-23T07:44:56.441Z,545.63
2019-04-23T07:46:02.311Z,551.25
2019-04-23T07:47:09.866Z,556.88
2019-04-23T07:48:03.868Z,551.25
2019-04-23T07:48:47.988Z,551.25
2019-04-23T07:50:26.058Z,556.88
2019-04-23T07:51:10.879Z,551.25
2019-04-23T07:52:01.150Z,556.88
2019-04-23T07:53:11.455Z,556.88
2019-04-23T07:54:01.405Z,556.88
2019-04-23T07:55:01.893Z,556.88
2019-04-23T07:56:13.114Z,556.88
2019-04-23T07:57:06.936Z,562.50
2019-04-23T07:57:58.286Z,562.50
2019-04-23T07:59:01.283Z,568.13
2019-04-23T07:59:56.313Z,568.13
2019-04-23T08:00:48.880Z,573.75
2019-04-23T08:02:19.402Z,573.75
2019-04-23T08:03:01.218Z,579.38
2019-04-23T08:03:55.924Z,585.00
2019-04-23T08:05:03.537Z,585.00
2019-04-23T08:05:49.616Z,585.00
2019-04-23T08:06:56.015Z,601.88
2019-04-23T08:08:12.179Z,607.50
2019-04-23T08:08:56.551Z,613.13
2019-04-23T08:10:00.664Z,635.63
2019-04-23T08:11:15.009Z,635.63
2019-04-23T08:11:56.376Z,646.88
2019-04-23T08:12:52.759Z,658.13
2019-04-23T08:14:08.564Z,658.13
2019-04-23T08:15:53.959Z,691.88
2019-04-23T08:16:50.278Z,680.63
2019-04-23T08:17:51.107Z,675.00
2019-04-23T08:18:55.578Z,675.00
2019-04-23T08:20:14.102Z,680.63
2019-04-23T08:20:54.048Z,680.63
2019-04-23T08:21:58.179Z,697.50
2019-04-23T08:22:55.462Z,703.13
2019-04-23T08:23:55.483Z,714.38
2019-04-23T08:26:55.211Z,725.63
2019-04-23T08:27:55.726Z,736.88
2019-04-23T08:29:05.412Z,736.88
2019-04-23T08:29:50.884Z,736.88
2019-04-23T08:30:53.791Z,753.75
2019-04-23T08:32:27.941Z,748.13
2019-04-23T08:32:57.330Z,753.75
2019-04-23T08:33:56.866Z,765.00
2019-04-23T08:35:06.409Z,765.00
2019-04-23T08:35:57.790Z,765.00
2019-04-23T08:36:55.393Z,765.00
2019-04-23T08:38:54.833Z,776.25
2019-04-23T08:40:08.179Z,787.50
2019-04-23T08:41:03.504Z,787.50
2019-04-23T08:42:09.442Z,793.13
2019-04-23T08:42:53.185Z,793.13
2019-04-23T08:44:23.969Z,821.25
2019-04-23T08:45:06.955Z,793.13
2019-04-23T08:45:52.815Z,793.13
2019-04-23T08:47:13.378Z,798.75
2019-04-23T08:48:02.975Z,787.50
2019-04-23T08:49:06.634Z,776.25
2019-04-23T08:50:21.688Z,759.38
2019-04-23T08:50:54.574Z,759.38
2019-04-23T08:52:00.136Z,753.75
2019-04-23T08:53:05.248Z,765.00
2019-04-23T08:53:57.139Z,753.75
2019-04-23T08:55:09.553Z,765.00
2019-04-23T08:56:15.462Z,748.13
2019-04-23T08:57:52.074Z,753.75
2019-04-23T08:59:02.297Z,759.38
2019-04-23T09:00:00.387Z,765.00
2019-04-23T09:02:31.383Z,759.38
2019-04-23T09:03:00.585Z,765.00
2019-04-23T09:03:56.038Z,776.25
2019-04-23T09:05:00.507Z,770.63
2019-04-23T09:07:06.205Z,781.88
2019-04-23T09:08:50.435Z,793.13
2019-04-23T09:09:58.946Z,793.13
2019-04-23T09:12:04.553Z,798.75
2019-04-23T09:13:16.083Z,810.00
2019-04-23T09:14:05.181Z,815.63
2019-04-23T09:15:01.986Z,826.88
2019-04-23T09:15:56.305Z,826.88
2019-04-23T09:16:58.269Z,866.25
2019-04-23T09:18:04.210Z,843.75
2019-04-23T09:18:54.396Z,843.75
2019-04-23T09:20:26.450Z,849.38
2019-04-23T09:21:00.424Z,855.00
2019-04-23T09:22:03.341Z,871.88
2019-04-23T09:22:51.725Z,871.88
2019-04-23T09:23:59.030Z,871.88
2019-04-23T09:25:08.399Z,877.50
2019-04-23T09:26:36.640Z,888.75
2019-04-23T09:27:00.246Z,888.75
2019-04-23T09:27:59.945Z,905.63
2019-04-23T09:31:05.194Z,933.75
2019-04-23T09:33:00.656Z,956.25
2019-04-23T09:34:00.580Z,956.25
2019-04-23T09:35:55.359Z,967.50
2019-04-23T09:36:57.946Z,973.13
2019-04-23T09:38:17.756Z,984.38
2019-04-23T09:39:03.167Z,990.00
2019-04-23T09:39:58.815Z,990.00
2019-04-23T09:41:15.514Z,1001.25
2019-04-23T09:41:51.527Z,1018.13
2019-04-23T09:43:03.800Z,1023.75
2019-04-23T09:46:02.406Z,1057.50
2019-04-23T09:47:00.367Z,1080.00
2019-04-23T09:49:09.783Z,1102.50
2019-04-23T09:50:38.485Z,1108.13
2019-04-23T09:50:57.029Z,1108.13
2019-04-23T09:52:02.543Z,1113.75
2019-04-23T09:53:07.912Z,1108.13
2019-04-23T09:53:57.689Z,1130.63
2019-04-23T09:55:10.627Z,1125.00
2019-04-23T09:56:14.686Z,1141.88
2019-04-23T09:56:52.516Z,1147.50
2019-04-23T09:59:02.312Z,1164.38
2019-04-23T10:00:01.769Z,1186.88
2019-04-23T10:00:54.323Z,1203.75
2019-04-23T10:02:10.398Z,1220.63
2019-04-23T10:02:49.875Z,1243.13
2019-04-23T10:03:41.682Z,1288.13
2019-04-23T10:04:46.329Z,1276.88
2019-04-23T10:05:39.610Z,1456.88
2019-04-23T10:06:34.544Z,2250.00
2019-04-23T10:08:01.829Z,3543.75
2019-04-23T10:08:36.515Z,4426.88
2019-04-23T10:09:30.138Z,4263.75
2019-04-23T10:10:30.261Z,4674.38
2019-04-23T10:11:30.522Z,5040.00
2019-04-23T10:12:30.318Z,5428.13
2019-04-23T10:13:52.611Z,4691.25
2019-04-23T10:14:30.455Z,5298.75
2019-04-23T10:15:34.965Z,5293.13
2019-04-23T10:16:33.800Z,4505.63
2019-04-23T10:17:30.031Z,4657.50
2019-04-23T10:18:31.010Z,4415.63
2019-04-23T10:19:51.078Z,4944.38
2019-04-23T10:20:30.880Z,4432.50
2019-04-23T10:21:31.211Z,4246.88
2019-04-23T10:22:33.667Z,4471.88
2019-04-23T10:23:31.463Z,4668.75
2019-04-23T10:24:30.933Z,5259.38
2019-04-23T10:25:52.260Z,4719.38
2019-04-23T10:26:30.342Z,4100.63
2019-04-23T10:27:30.277Z,5270.63
2019-04-23T10:28:31.665Z,4595.63
2019-04-23T10:29:31.844Z,3903.75
2019-04-23T10:30:31.178Z,4280.63
2019-04-23T10:31:51.485Z,4325.63
2019-04-23T10:32:31.608Z,4230.00
2019-04-23T10:33:31.690Z,4978.13
2019-04-23T10:34:42.234Z,4398.75
2019-04-23T10:35:41.332Z,4995.00
2019-04-23T10:36:32.078Z,3673.13
2019-04-23T10:37:58.566Z,3470.63
2019-04-23T10:38:32.766Z,3206.25
2019-04-23T10:39:35.598Z,2660.63
2019-04-23T10:40:34.750Z,2199.38
2019-04-23T10:41:30.988Z,1715.63
2019-04-23T10:42:33.297Z,1591.88
2019-04-23T10:43:54.372Z,1580.63
2019-04-23T10:44:31.223Z,1552.50
2019-04-23T10:45:44.708Z,1518.75
2019-04-23T10:46:53.070Z,1490.63
2019-04-23T10:48:10.135Z,1479.38
2019-04-23T10:49:10.781Z,1507.50
2019-04-23T10:50:29.985Z,1445.63
2019-04-23T10:53:09.830Z,1428.75
2019-04-23T10:54:07.281Z,1428.75
2019-04-23T10:55:11.876Z,1423.13
2019-04-23T10:56:27.143Z,1417.50
2019-04-23T10:57:13.757Z,1411.88
2019-04-23T10:57:54.876Z,1434.38
2019-04-23T10:59:01.853Z,1445.63
2019-04-23T11:00:09.853Z,1400.63
2019-04-23T11:00:59.940Z,1417.50
2019-04-23T11:02:58.889Z,1434.38
2019-04-23T11:04:10.031Z,1423.13
2019-04-23T11:07:03.332Z,1389.38
2019-04-23T11:08:19.014Z,1366.88
2019-04-23T11:09:01.596Z,1327.50
2019-04-23T11:11:00.811Z,1338.75
2019-04-23T11:12:01.769Z,1316.25
2019-04-23T11:12:48.924Z,1299.38
2019-04-23T11:14:25.165Z,1305.00
2019-04-23T11:15:12.552Z,1310.63
2019-04-23T11:16:27.494Z,1299.38
2019-04-23T11:17:20.544Z,1282.50
2019-04-23T11:17:59.274Z,1288.13
2019-04-23T11:19:15.733Z,1282.50
2019-04-23T11:20:58.249Z,1282.50
2019-04-23T11:22:21.032Z,1293.75
2019-04-23T11:23:04.796Z,1299.38
2019-04-23T11:23:59.848Z,1305.00
2019-04-23T11:25:14.752Z,1293.75
2019-04-23T11:26:55.746Z,1310.63
2019-04-23T11:29:01.964Z,1333.13
2019-04-23T11:30:11.907Z,1344.38
2019-04-23T11:30:57.327Z,1338.75
2019-04-23T11:32:41.195Z,1316.25
2019-04-23T11:33:16.258Z,1293.75
2019-04-23T11:34:06.295Z,1288.13
2019-04-23T11:35:11.529Z,1288.13
2019-04-23T11:40:04.058Z,1209.38
2019-04-23T11:41:05.513Z,1192.50
2019-04-23T11:42:05.156Z,1181.25
2019-04-23T11:43:09.337Z,1192.50
2019-04-23T11:44:26.961Z,1181.25
2019-04-23T11:45:09.303Z,1147.50
2019-04-23T11:46:10.988Z,1181.25
2019-04-23T11:47:04.559Z,1170.00
2019-04-23T11:48:22.483Z,1181.25
2019-04-23T11:49:11.399Z,1170.00
2019-04-23T11:50:28.122Z,1147.50
2019-04-23T11:52:17.797Z,1130.63
2019-04-23T11:54:01.282Z,1158.75
2019-04-23T11:55:00.805Z,1147.50
2019-04-23T11:56:35.062Z,1136.25
2019-04-23T11:57:21.914Z,1170.00
2019-04-23T11:59:27.496Z,1153.13
2019-04-23T11:59:59.525Z,1153.13
2019-04-23T12:01:11.616Z,1153.13
2019-04-23T12:02:23.412Z,1125.00
2019-04-23T12:02:54.326Z,1175.63
2019-04-23T12:04:48.533Z,1175.63
2019-04-23T12:05:17.127Z,1181.25
2019-04-23T12:06:09.407Z,1181.25
2019-04-23T12:07:06.164Z,1175.63
2019-04-23T12:08:41.373Z,1181.25
2019-04-23T12:09:09.705Z,1175.63
2019-04-23T12:10:09.133Z,1192.50
2019-04-23T12:11:35.664Z,1198.13
2019-04-23T12:12:04.183Z,1192.50
2019-04-23T12:13:03.345Z,1198.13
2019-04-23T12:14:32.760Z,1181.25
2019-04-23T12:15:05.417Z,1192.50
2019-04-23T12:16:00.728Z,1203.75
2019-04-23T12:17:22.600Z,1209.38
2019-04-23T12:18:01.049Z,1215.00
2019-04-23T12:19:24.500Z,1231.88
2019-04-23T12:20:27.137Z,1220.63
2019-04-23T12:20:57.154Z,1237.50
2019-04-23T12:23:18.761Z,1260.00
2019-04-23T12:24:10.751Z,1271.25
2019-04-23T12:26:34.177Z,1220.63
2019-04-23T12:27:08.146Z,1215.00
2019-04-23T12:27:46.943Z,1203.75
2019-04-23T12:29:13.281Z,1181.25
2019-04-23T12:30:06.109Z,1181.25
2019-04-23T12:30:57.335Z,1164.38
2019-04-23T12:32:43.286Z,1158.75
2019-04-23T12:33:08.536Z,1170.00
2019-04-23T12:35:04.285Z,1170.00
2019-04-23T12:36:10.155Z,1170.00
2019-04-23T12:37:26.714Z,1170.00
2019-04-23T12:38:23.210Z,1181.25
2019-04-23T12:39:04.397Z,1181.25
2019-04-23T12:40:12.855Z,1198.13
2019-04-23T12:41:04.206Z,1192.50
2019-04-23T12:42:25.532Z,1186.88
2019-04-23T12:43:13.322Z,1192.50
2019-04-23T12:44:22.098Z,1203.75
2019-04-23T12:45:07.018Z,1209.38
2019-04-23T12:45:59.505Z,1220.63
2019-04-23T12:47:07.020Z,1220.63
2019-04-23T12:48:02.184Z,1237.50
2019-04-23T12:49:07.128Z,1220.63
2019-04-23T12:52:02.440Z,1226.25
2019-04-23T12:53:05.694Z,1248.75
2019-04-23T12:53:59.547Z,1231.88
2019-04-23T12:55:08.685Z,1226.25
2019-04-23T12:56:34.439Z,1265.63
2019-04-23T12:57:14.640Z,1276.88
2019-04-23T12:58:09.865Z,1276.88
2019-04-23T12:58:56.316Z,1271.25
2019-04-23T13:00:58.122Z,1265.63
2019-04-23T13:02:33.328Z,1293.75
2019-04-23T13:02:57.188Z,1299.38
2019-04-23T13:04:02.528Z,1288.13
2019-04-23T13:05:00.114Z,1271.25
2019-04-23T13:05:55.475Z,1305.00
2019-04-23T13:06:57.898Z,1299.38
2019-04-23T13:09:09.276Z,1316.25
2019-04-23T13:10:06.362Z,1288.13
2019-04-23T13:10:57.255Z,1271.25
2019-04-23T13:12:11.766Z,1282.50
2019-04-23T13:13:08.647Z,1271.25
2019-04-23T13:14:29.961Z,1220.63
2019-04-23T13:15:05.782Z,1237.50
2019-04-23T13:16:05.891Z,1243.13
2019-04-23T13:19:06.723Z,1254.38
2019-04-23T13:20:23.460Z,1215.00
2019-04-23T13:21:14.287Z,1209.38
2019-04-23T13:23:16.803Z,1164.38
2019-04-23T13:23:54.673Z,1170.00
2019-04-23T13:25:05.308Z,1147.50
2019-04-23T13:26:11.005Z,1158.75
2019-04-23T13:27:02.388Z,1164.38
2019-04-23T13:29:03.117Z,1136.25
2019-04-23T13:32:27.480Z,1102.50
2019-04-23T13:33:08.180Z,1091.25
2019-04-23T13:34:00.836Z,1096.88
2019-04-23T13:35:19.887Z,1085.63
2019-04-23T13:37:07.869Z,1130.63
2019-04-23T13:39:02.373Z,1265.63
2019-04-23T13:40:00.471Z,1288.13
2019-04-23T13:42:05.179Z,1305.00
2019-04-23T13:43:12.195Z,1288.13
2019-04-23T13:44:29.320Z,1271.25
2019-04-23T13:45:08.888Z,1276.88
2019-04-23T13:46:14.955Z,1299.38
2019-04-23T13:47:18.142Z,1428.75
2019-04-23T13:49:00.550Z,1451.25
2019-04-23T13:50:37.164Z,1485.00
2019-04-23T13:51:06.650Z,1456.88
2019-04-23T13:52:19.812Z,1563.75
2019-04-23T13:53:59.269Z,1636.88
2019-04-23T13:56:47.910Z,1383.75
2019-04-23T13:57:32.622Z,1344.38
2019-04-23T13:59:11.990Z,1350.00
2019-04-23T14:00:29.707Z,1366.88
2019-04-23T14:01:07.383Z,1378.13
2019-04-23T14:02:34.292Z,1338.75
2019-04-23T14:03:03.534Z,1378.13
2019-04-23T14:04:07.724Z,1423.13
2019-04-23T14:06:10.726Z,1440.00
2019-04-23T14:07:05.441Z,1423.13
2019-04-23T14:08:33.573Z,1451.25
2019-04-23T14:09:14.764Z,1479.38
2019-04-23T14:10:11.871Z,1462.50
2019-04-23T14:11:05.618Z,1468.13
2019-04-23T14:11:59.826Z,1411.88
2019-04-23T14:13:28.495Z,1400.63
2019-04-23T14:14:39.308Z,1344.38
2019-04-23T14:15:04.315Z,1344.38
2019-04-23T14:16:03.821Z,1327.50
2019-04-23T14:17:08.381Z,1327.50
2019-04-23T14:18:29.050Z,1282.50
2019-04-23T14:19:04.043Z,1276.88
2019-04-23T14:20:34.865Z,1316.25
2019-04-23T14:21:07.818Z,1316.25
2019-04-23T14:22:21.099Z,1350.00
2019-04-23T14:25:05.799Z,1468.13
2019-04-23T14:27:08.824Z,1395.00
2019-04-23T14:28:16.988Z,1372.50
2019-04-23T14:28:59.383Z,1378.13
2019-04-23T14:31:05.947Z,1445.63
2019-04-23T14:32:29.075Z,1383.75
2019-04-23T14:33:14.686Z,1383.75
2019-04-23T14:35:16.628Z,1366.88
2019-04-23T14:36:19.930Z,1333.13
2019-04-23T14:37:04.269Z,1299.38
2019-04-23T14:39:15.655Z,1305.00
2019-04-23T14:40:03.203Z,1310.63
2019-04-23T14:41:12.886Z,1282.50
2019-04-23T14:42:21.726Z,1254.38
2019-04-23T14:44:19.742Z,1282.50
2019-04-23T14:45:21.710Z,1282.50
2019-04-23T14:47:07.556Z,1203.75
2019-04-23T14:48:12.392Z,1136.25
2019-04-23T14:49:04.271Z,1108.13
2019-04-23T14:50:32.433Z,1119.38
2019-04-23T14:51:26.378Z,1102.50
2019-04-23T14:52:09.141Z,1096.88
2019-04-23T14:53:12.624Z,1046.25
2019-04-23T14:54:24.950Z,1057.50
2019-04-23T14:56:22.238Z,1018.13
2019-04-23T14:57:07.944Z,1035.00
2019-04-23T14:59:07.145Z,1018.13
2019-04-23T15:00:07.237Z,984.38
2019-04-23T15:01:16.265Z,1035.00
2019-04-23T15:02:27.128Z,1046.25
2019-04-23T15:03:08.382Z,1051.88
2019-04-23T15:04:21.919Z,1080.00
2019-04-23T15:07:10.980Z,1102.50
2019-04-23T15:08:34.249Z,1153.13
2019-04-23T15:10:08.506Z,1125.00
2019-04-23T15:12:12.035Z,1125.00
2019-04-23T15:13:10.477Z,1113.75
2019-04-23T15:14:28.439Z,1096.88
2019-04-23T15:15:19.599Z,1130.63
2019-04-23T15:17:07.168Z,1119.38
2019-04-23T15:18:07.460Z,1136.25
2019-04-23T15:19:12.804Z,1147.50
2019-04-23T15:20:25.427Z,1164.38
2019-04-23T15:21:28.345Z,1147.50
2019-04-23T15:22:07.798Z,1023.75
2019-04-23T15:23:38.524Z,1018.13